KMOP/MOP METAR and TAF weather

Enter ICAO airport designator
Station Type Date Time Source
KMOP METAR 2020/01/28 11:36 UTC NOAA

KMOP 281136Z AUTO 31003KT 10SM OVC026 00/M04 A2999 RMK AO2 T00001045


Station Type Date Time Source
KMOP Decoded METAR 2020/01/28 11:36 UTC NOAA

Mount Pleasant, Mount Pleasant Municipal Airport, MI, United States (KMOP) 43-37N 84-44W
Jan 28, 2020 - 06:36 AM EST / 2020.01.28 1136 UTC
Wind: from the NW (310 degrees) at 3 MPH (3 KT):0
Visibility: 10 mile(s):0
Sky conditions: overcast
Temperature: 32.0 F (0.0 C)
Dew Point: 23.9 F (-4.5 C)
Relative Humidity: 71%
Pressure (altimeter): 29.99 in. Hg (1015 hPa)
ob: KMOP 281136Z AUTO 31003KT 10SM OVC026 00/M04 A2999 RMK AO2 T00001045
cycle: 11

Station Type Date Time Source
KMOP TAF UTC NOAA

Error!

Example: see airport list